sensor_id;sensor_type;location;lat;lon;timestamp;P1;durP1;ratioP1;P2;durP2;ratioP2
58366;SDS011;57745;42.524;12.052;2023-05-07T00:00:00;1.70;;;1.42;;
58366;SDS011;57745;42.524;12.052;2023-05-07T00:02:26;3.90;;;1.10;;
58366;SDS011;57745;42.524;12.052;2023-05-07T00:04:52;3.53;;;1.27;;
58366;SDS011;57745;42.524;12.052;2023-05-07T00:07:18;1.70;;;0.93;;
58366;SDS011;57745;42.524;12.052;2023-05-07T00:09:43;1.67;;;0.90;;
58366;SDS011;57745;42.524;12.052;2023-05-07T00:12:08;1.48;;;0.93;;
58366;SDS011;57745;42.524;12.052;2023-05-07T00:14:34;2.30;;;0.80;;
58366;SDS011;57745;42.524;12.052;2023-05-07T00:16:59;1.13;;;0.98;;
58366;SDS011;57745;42.524;12.052;2023-05-07T00:19:25;2.30;;;0.80;;
58366;SDS011;57745;42.524;12.052;2023-05-07T00:21:50;1.23;;;0.80;;
58366;SDS011;57745;42.524;12.052;2023-05-07T00:24:18;0.82;;;0.80;;
58366;SDS011;57745;42.524;12.052;2023-05-07T00:26:43;3.20;;;1.08;;
58366;SDS011;57745;42.524;12.052;2023-05-07T00:29:09;1.67;;;0.90;;
58366;SDS011;57745;42.524;12.052;2023-05-07T00:31:34;1.95;;;0.93;;
58366;SDS011;57745;42.524;12.052;2023-05-07T00:34:00;1.33;;;0.90;;
58366;SDS011;57745;42.524;12.052;2023-05-07T00:36:25;0.82;;;0.70;;
58366;SDS011;57745;42.524;12.052;2023-05-07T00:38:51;1.30;;;1.20;;
58366;SDS011;57745;42.524;12.052;2023-05-07T00:41:16;2.30;;;1.02;;
58366;SDS011;57745;42.524;12.052;2023-05-07T00:43:42;3.55;;;1.08;;
58366;SDS011;57745;42.524;12.052;2023-05-07T00:46:07;1.30;;;0.90;;
58366;SDS011;57745;42.524;12.052;2023-05-07T00:48:32;1.92;;;0.90;;
58366;SDS011;57745;42.524;12.052;2023-05-07T00:50:58;1.98;;;1.00;;
58366;SDS011;57745;42.524;12.052;2023-05-07T00:53:23;1.10;;;0.65;;
58366;SDS011;57745;42.524;12.052;2023-05-07T00:55:49;1.27;;;1.00;;
58366;SDS011;57745;42.524;12.052;2023-05-07T00:58:16;1.92;;;0.90;;
58366;SDS011;57745;42.524;12.052;2023-05-07T01:00:41;1.95;;;1.02;;
58366;SDS011;57745;42.524;12.052;2023-05-07T01:03:07;1.38;;;0.90;;
58366;SDS011;57745;42.524;12.052;2023-05-07T01:05:32;1.33;;;1.10;;
58366;SDS011;57745;42.524;12.052;2023-05-07T01:07:58;1.60;;;1.00;;
58366;SDS011;57745;42.524;12.052;2023-05-07T01:10:24;1.67;;;0.98;;
58366;SDS011;57745;42.524;12.052;2023-05-07T01:12:50;1.40;;;1.15;;
58366;SDS011;57745;42.524;12.052;2023-05-07T01:15:17;1.58;;;0.93;;
58366;SDS011;57745;42.524;12.052;2023-05-07T01:17:43;2.10;;;0.80;;
58366;SDS011;57745;42.524;12.052;2023-05-07T01:20:10;3.22;;;1.00;;
58366;SDS011;57745;42.524;12.052;2023-05-07T01:22:36;2.13;;;0.80;;
58366;SDS011;57745;42.524;12.052;2023-05-07T01:25:03;1.27;;;1.08;;
58366;SDS011;57745;42.524;12.052;2023-05-07T01:27:29;1.40;;;1.00;;
58366;SDS011;57745;42.524;12.052;2023-05-07T01:29:55;1.58;;;1.27;;
58366;SDS011;57745;42.524;12.052;2023-05-07T01:32:26;2.42;;;1.40;;
58366;SDS011;57745;42.524;12.052;2023-05-07T01:34:58;2.60;;;1.00;;
58366;SDS011;57745;42.524;12.052;2023-05-07T01:37:26;1.42;;;1.20;;
58366;SDS011;57745;42.524;12.052;2023-05-07T01:39:52;2.65;;;1.30;;
58366;SDS011;57745;42.524;12.052;2023-05-07T01:42:18;5.13;;;1.40;;
58366;SDS011;57745;42.524;12.052;2023-05-07T01:44:43;2.88;;;1.42;;
58366;SDS011;57745;42.524;12.052;2023-05-07T01:47:09;3.20;;;1.20;;
58366;SDS011;57745;42.524;12.052;2023-05-07T01:49:35;2.05;;;1.00;;
58366;SDS011;57745;42.524;12.052;2023-05-07T01:52:01;1.77;;;1.10;;
58366;SDS011;57745;42.524;12.052;2023-05-07T01:54:27;1.73;;;1.40;;
58366;SDS011;57745;42.524;12.052;2023-05-07T01:56:53;1.45;;;1.23;;
58366;SDS011;57745;42.524;12.052;2023-05-07T01:59:18;2.20;;;1.15;;
58366;SDS011;57745;42.524;12.052;2023-05-07T02:01:44;1.20;;;1.00;;
58366;SDS011;57745;42.524;12.052;2023-05-07T02:04:10;1.75;;;0.95;;
58366;SDS011;57745;42.524;12.052;2023-05-07T02:06:35;1.83;;;0.90;;
58366;SDS011;57745;42.524;12.052;2023-05-07T02:09:00;1.20;;;0.80;;
58366;SDS011;57745;42.524;12.052;2023-05-07T02:11:26;2.40;;;0.90;;
58366;SDS011;57745;42.524;12.052;2023-05-07T02:13:52;2.20;;;1.00;;
58366;SDS011;57745;42.524;12.052;2023-05-07T02:16:18;1.88;;;1.10;;
58366;SDS011;57745;42.524;12.052;2023-05-07T02:18:44;1.10;;;0.90;;
58366;SDS011;57745;42.524;12.052;2023-05-07T02:21:09;2.88;;;1.00;;
58366;SDS011;57745;42.524;12.052;2023-05-07T02:23:35;1.67;;;1.30;;
58366;SDS011;57745;42.524;12.052;2023-05-07T02:26:06;1.83;;;1.08;;
58366;SDS011;57745;42.524;12.052;2023-05-07T02:28:31;2.72;;;1.20;;
58366;SDS011;57745;42.524;12.052;2023-05-07T02:30:57;2.15;;;1.10;;
58366;SDS011;57745;42.524;12.052;2023-05-07T02:33:26;3.45;;;1.00;;
58366;SDS011;57745;42.524;12.052;2023-05-07T02:35:51;1.60;;;1.00;;
58366;SDS011;57745;42.524;12.052;2023-05-07T02:38:17;1.17;;;0.90;;
58366;SDS011;57745;42.524;12.052;2023-05-07T02:40:42;2.08;;;1.00;;
58366;SDS011;57745;42.524;12.052;2023-05-07T02:43:08;1.98;;;0.70;;
58366;SDS011;57745;42.524;12.052;2023-05-07T02:45:33;1.98;;;1.00;;
58366;SDS011;57745;42.524;12.052;2023-05-07T02:47:58;1.10;;;0.88;;
58366;SDS011;57745;42.524;12.052;2023-05-07T02:50:27;1.42;;;0.93;;
58366;SDS011;57745;42.524;12.052;2023-05-07T02:52:52;0.85;;;0.80;;
58366;SDS011;57745;42.524;12.052;2023-05-07T02:55:18;2.75;;;0.90;;
58366;SDS011;57745;42.524;12.052;2023-05-07T02:57:43;1.20;;;1.00;;
58366;SDS011;57745;42.524;12.052;2023-05-07T03:00:16;1.02;;;0.88;;
58366;SDS011;57745;42.524;12.052;2023-05-07T03:02:43;1.70;;;1.15;;
58366;SDS011;57745;42.524;12.052;2023-05-07T03:05:09;1.50;;;0.90;;
58366;SDS011;57745;42.524;12.052;2023-05-07T03:07:35;1.63;;;1.15;;
58366;SDS011;57745;42.524;12.052;2023-05-07T03:10:01;1.73;;;1.20;;
58366;SDS011;57745;42.524;12.052;2023-05-07T03:12:27;2.47;;;1.63;;
58366;SDS011;57745;42.524;12.052;2023-05-07T03:14:52;5.32;;;1.83;;
58366;SDS011;57745;42.524;12.052;2023-05-07T03:17:17;3.47;;;2.10;;
58366;SDS011;57745;42.524;12.052;2023-05-07T03:19:43;4.22;;;2.40;;
58366;SDS011;57745;42.524;12.052;2023-05-07T03:22:08;4.05;;;2.28;;
58366;SDS011;57745;42.524;12.052;2023-05-07T03:24:34;2.92;;;2.08;;
58366;SDS011;57745;42.524;12.052;2023-05-07T03:27:00;2.90;;;1.95;;
58366;SDS011;57745;42.524;12.052;2023-05-07T03:29:26;3.88;;;2.28;;
58366;SDS011;57745;42.524;12.052;2023-05-07T03:31:51;4.20;;;2.53;;
58366;SDS011;57745;42.524;12.052;2023-05-07T03:34:17;3.63;;;2.45;;
58366;SDS011;57745;42.524;12.052;2023-05-07T03:36:47;4.65;;;2.92;;
58366;SDS011;57745;42.524;12.052;2023-05-07T03:39:15;4.22;;;2.90;;
58366;SDS011;57745;42.524;12.052;2023-05-07T03:41:42;6.20;;;3.10;;
58366;SDS011;57745;42.524;12.052;2023-05-07T03:44:07;5.00;;;3.15;;
58366;SDS011;57745;42.524;12.052;2023-05-07T03:46:33;6.90;;;4.03;;
58366;SDS011;57745;42.524;12.052;2023-05-07T03:48:59;5.07;;;3.60;;
58366;SDS011;57745;42.524;12.052;2023-05-07T03:51:24;6.93;;;3.85;;
58366;SDS011;57745;42.524;12.052;2023-05-07T03:53:51;4.53;;;3.60;;
58366;SDS011;57745;42.524;12.052;2023-05-07T03:56:22;5.30;;;3.45;;
58366;SDS011;57745;42.524;12.052;2023-05-07T03:58:48;5.78;;;3.65;;
58366;SDS011;57745;42.524;12.052;2023-05-07T04:01:13;4.82;;;3.58;;
58366;SDS011;57745;42.524;12.052;2023-05-07T04:03:39;5.60;;;3.70;;
58366;SDS011;57745;42.524;12.052;2023-05-07T04:06:04;5.95;;;4.70;;
58366;SDS011;57745;42.524;12.052;2023-05-07T04:08:30;6.05;;;4.65;;
58366;SDS011;57745;42.524;12.052;2023-05-07T04:10:56;5.72;;;4.57;;
58366;SDS011;57745;42.524;12.052;2023-05-07T04:13:22;6.53;;;5.50;;
58366;SDS011;57745;42.524;12.052;2023-05-07T04:15:51;7.65;;;5.05;;
58366;SDS011;57745;42.524;12.052;2023-05-07T04:18:17;6.13;;;4.85;;
58366;SDS011;57745;42.524;12.052;2023-05-07T04:20:43;7.50;;;4.88;;
58366;SDS011;57745;42.524;12.052;2023-05-07T04:23:08;7.22;;;5.03;;
58366;SDS011;57745;42.524;12.052;2023-05-07T04:25:34;8.27;;;4.80;;
58366;SDS011;57745;42.524;12.052;2023-05-07T04:27:59;6.45;;;4.88;;
58366;SDS011;57745;42.524;12.052;2023-05-07T04:30:25;7.18;;;4.63;;
58366;SDS011;57745;42.524;12.052;2023-05-07T04:32:50;9.23;;;4.93;;
58366;SDS011;57745;42.524;12.052;2023-05-07T04:35:17;9.68;;;5.57;;
58366;SDS011;57745;42.524;12.052;2023-05-07T04:37:42;7.38;;;5.57;;
58366;SDS011;57745;42.524;12.052;2023-05-07T04:40:07;9.55;;;6.15;;
58366;SDS011;57745;42.524;12.052;2023-05-07T04:42:33;10.73;;;7.28;;
58366;SDS011;57745;42.524;12.052;2023-05-07T04:44:59;8.73;;;6.10;;
58366;SDS011;57745;42.524;12.052;2023-05-07T04:47:25;9.45;;;6.88;;
58366;SDS011;57745;42.524;12.052;2023-05-07T04:49:50;9.38;;;6.82;;
58366;SDS011;57745;42.524;12.052;2023-05-07T04:52:16;8.70;;;6.00;;
58366;SDS011;57745;42.524;12.052;2023-05-07T04:54:43;10.00;;;7.20;;
58366;SDS011;57745;42.524;12.052;2023-05-07T04:57:08;9.00;;;6.85;;
58366;SDS011;57745;42.524;12.052;2023-05-07T04:59:33;7.55;;;6.15;;
58366;SDS011;57745;42.524;12.052;2023-05-07T05:01:59;9.15;;;6.82;;
58366;SDS011;57745;42.524;12.052;2023-05-07T05:04:24;9.90;;;7.22;;
58366;SDS011;57745;42.524;12.052;2023-05-07T05:06:50;9.60;;;6.80;;
58366;SDS011;57745;42.524;12.052;2023-05-07T05:09:16;8.75;;;6.95;;
58366;SDS011;57745;42.524;12.052;2023-05-07T05:11:41;9.18;;;6.40;;
58366;SDS011;57745;42.524;12.052;2023-05-07T05:14:07;10.10;;;7.03;;
58366;SDS011;57745;42.524;12.052;2023-05-07T05:16:32;9.23;;;7.45;;
58366;SDS011;57745;42.524;12.052;2023-05-07T05:18:58;8.98;;;6.75;;
58366;SDS011;57745;42.524;12.052;2023-05-07T05:21:23;8.32;;;6.72;;
58366;SDS011;57745;42.524;12.052;2023-05-07T05:23:49;8.40;;;6.97;;
58366;SDS011;57745;42.524;12.052;2023-05-07T05:26:14;7.63;;;6.35;;
58366;SDS011;57745;42.524;12.052;2023-05-07T05:28:40;8.13;;;6.20;;
58366;SDS011;57745;42.524;12.052;2023-05-07T05:31:05;10.63;;;6.60;;
58366;SDS011;57745;42.524;12.052;2023-05-07T05:33:31;9.43;;;7.05;;
58366;SDS011;57745;42.524;12.052;2023-05-07T05:35:56;7.93;;;6.07;;
58366;SDS011;57745;42.524;12.052;2023-05-07T05:38:23;8.80;;;5.95;;
58366;SDS011;57745;42.524;12.052;2023-05-07T05:40:48;8.52;;;5.75;;
58366;SDS011;57745;42.524;12.052;2023-05-07T05:43:15;8.40;;;6.30;;
58366;SDS011;57745;42.524;12.052;2023-05-07T05:45:40;10.55;;;6.10;;
58366;SDS011;57745;42.524;12.052;2023-05-07T05:48:05;6.78;;;5.20;;
58366;SDS011;57745;42.524;12.052;2023-05-07T05:50:31;6.82;;;4.90;;
58366;SDS011;57745;42.524;12.052;2023-05-07T05:52:58;6.13;;;4.90;;
58366;SDS011;57745;42.524;12.052;2023-05-07T05:55:23;5.43;;;3.78;;
58366;SDS011;57745;42.524;12.052;2023-05-07T05:57:49;6.10;;;3.67;;
58366;SDS011;57745;42.524;12.052;2023-05-07T06:00:15;4.65;;;3.40;;
58366;SDS011;57745;42.524;12.052;2023-05-07T06:02:41;3.88;;;3.10;;
58366;SDS011;57745;42.524;12.052;2023-05-07T06:05:07;3.08;;;2.67;;
58366;SDS011;57745;42.524;12.052;2023-05-07T06:07:33;3.53;;;2.45;;
58366;SDS011;57745;42.524;12.052;2023-05-07T06:09:59;3.30;;;2.03;;
58366;SDS011;57745;42.524;12.052;2023-05-07T06:12:25;3.13;;;2.10;;
58366;SDS011;57745;42.524;12.052;2023-05-07T06:14:50;2.60;;;2.28;;
58366;SDS011;57745;42.524;12.052;2023-05-07T06:17:16;4.55;;;2.70;;
58366;SDS011;57745;42.524;12.052;2023-05-07T06:19:42;5.07;;;2.70;;
58366;SDS011;57745;42.524;12.052;2023-05-07T06:22:07;4.18;;;2.50;;
58366;SDS011;57745;42.524;12.052;2023-05-07T06:24:33;3.05;;;2.13;;
58366;SDS011;57745;42.524;12.052;2023-05-07T06:26:58;3.15;;;2.03;;
58366;SDS011;57745;42.524;12.052;2023-05-07T06:29:24;4.28;;;2.05;;
58366;SDS011;57745;42.524;12.052;2023-05-07T06:31:55;2.38;;;1.80;;
58366;SDS011;57745;42.524;12.052;2023-05-07T06:34:20;2.58;;;1.67;;
58366;SDS011;57745;42.524;12.052;2023-05-07T06:36:46;2.28;;;1.88;;
58366;SDS011;57745;42.524;12.052;2023-05-07T06:39:11;4.40;;;2.20;;
58366;SDS011;57745;42.524;12.052;2023-05-07T06:41:37;4.22;;;2.00;;
58366;SDS011;57745;42.524;12.052;2023-05-07T06:44:02;5.90;;;1.67;;
58366;SDS011;57745;42.524;12.052;2023-05-07T06:46:28;2.53;;;1.85;;
58366;SDS011;57745;42.524;12.052;2023-05-07T06:48:53;1.92;;;1.75;;
58366;SDS011;57745;42.524;12.052;2023-05-07T06:51:19;9.82;;;2.40;;
58366;SDS011;57745;42.524;12.052;2023-05-07T06:53:44;3.08;;;2.13;;
58366;SDS011;57745;42.524;12.052;2023-05-07T06:56:10;3.97;;;1.92;;
58366;SDS011;57745;42.524;12.052;2023-05-07T06:58:35;3.30;;;2.30;;
58366;SDS011;57745;42.524;12.052;2023-05-07T07:01:01;2.72;;;2.10;;
58366;SDS011;57745;42.524;12.052;2023-05-07T07:03:26;4.03;;;2.45;;
58366;SDS011;57745;42.524;12.052;2023-05-07T07:05:53;6.60;;;2.35;;
58366;SDS011;57745;42.524;12.052;2023-05-07T07:08:19;3.55;;;2.00;;
58366;SDS011;57745;42.524;12.052;2023-05-07T07:10:46;2.60;;;1.70;;
58366;SDS011;57745;42.524;12.052;2023-05-07T07:13:13;2.63;;;1.90;;
58366;SDS011;57745;42.524;12.052;2023-05-07T07:15:39;3.08;;;2.22;;
58366;SDS011;57745;42.524;12.052;2023-05-07T07:18:05;2.72;;;1.92;;
58366;SDS011;57745;42.524;12.052;2023-05-07T07:20:31;3.70;;;2.03;;
58366;SDS011;57745;42.524;12.052;2023-05-07T07:22:56;3.58;;;2.50;;
58366;SDS011;57745;42.524;12.052;2023-05-07T07:25:22;4.53;;;2.00;;
58366;SDS011;57745;42.524;12.052;2023-05-07T07:27:48;2.40;;;1.65;;
58366;SDS011;57745;42.524;12.052;2023-05-07T07:30:14;2.88;;;1.77;;
58366;SDS011;57745;42.524;12.052;2023-05-07T07:32:40;3.60;;;1.90;;
58366;SDS011;57745;42.524;12.052;2023-05-07T07:35:06;1.85;;;1.30;;
58366;SDS011;57745;42.524;12.052;2023-05-07T07:37:31;2.92;;;1.50;;
58366;SDS011;57745;42.524;12.052;2023-05-07T07:39:57;2.58;;;1.52;;
58366;SDS011;57745;42.524;12.052;2023-05-07T07:42:22;3.72;;;1.38;;
58366;SDS011;57745;42.524;12.052;2023-05-07T07:44:48;4.07;;;1.20;;
58366;SDS011;57745;42.524;12.052;2023-05-07T07:47:13;2.85;;;1.42;;
58366;SDS011;57745;42.524;12.052;2023-05-07T07:49:40;2.33;;;1.13;;
58366;SDS011;57745;42.524;12.052;2023-05-07T07:52:05;1.73;;;1.45;;
58366;SDS011;57745;42.524;12.052;2023-05-07T07:54:31;2.53;;;1.10;;
58366;SDS011;57745;42.524;12.052;2023-05-07T07:56:57;1.63;;;1.20;;
58366;SDS011;57745;42.524;12.052;2023-05-07T07:59:22;2.13;;;1.20;;
58366;SDS011;57745;42.524;12.052;2023-05-07T08:01:48;2.05;;;1.30;;
58366;SDS011;57745;42.524;12.052;2023-05-07T08:04:16;1.48;;;0.98;;
58366;SDS011;57745;42.524;12.052;2023-05-07T08:06:41;1.40;;;0.95;;
58366;SDS011;57745;42.524;12.052;2023-05-07T08:09:07;1.98;;;1.35;;
58366;SDS011;57745;42.524;12.052;2023-05-07T08:11:33;4.00;;;2.30;;
58366;SDS011;57745;42.524;12.052;2023-05-07T08:13:58;4.22;;;2.20;;
58366;SDS011;57745;42.524;12.052;2023-05-07T08:16:24;4.60;;;1.55;;
58366;SDS011;57745;42.524;12.052;2023-05-07T08:18:50;2.72;;;1.65;;
58366;SDS011;57745;42.524;12.052;2023-05-07T08:21:16;2.00;;;1.63;;
58366;SDS011;57745;42.524;12.052;2023-05-07T08:23:42;2.60;;;1.40;;
58366;SDS011;57745;42.524;12.052;2023-05-07T08:26:08;2.22;;;1.20;;
58366;SDS011;57745;42.524;12.052;2023-05-07T08:28:33;3.08;;;1.20;;
58366;SDS011;57745;42.524;12.052;2023-05-07T08:31:00;3.03;;;1.63;;
58366;SDS011;57745;42.524;12.052;2023-05-07T08:33:26;3.40;;;2.10;;
58366;SDS011;57745;42.524;12.052;2023-05-07T08:35:51;3.88;;;2.00;;
58366;SDS011;57745;42.524;12.052;2023-05-07T08:38:17;3.63;;;1.52;;
58366;SDS011;57745;42.524;12.052;2023-05-07T08:40:42;4.13;;;1.90;;
58366;SDS011;57745;42.524;12.052;2023-05-07T08:43:10;6.35;;;2.10;;
58366;SDS011;57745;42.524;12.052;2023-05-07T08:45:37;2.58;;;1.55;;
58366;SDS011;57745;42.524;12.052;2023-05-07T08:48:05;2.75;;;1.67;;
58366;SDS011;57745;42.524;12.052;2023-05-07T08:50:35;4.25;;;1.80;;
58366;SDS011;57745;42.524;12.052;2023-05-07T08:53:04;3.33;;;1.85;;
58366;SDS011;57745;42.524;12.052;2023-05-07T08:55:30;2.47;;;1.73;;
58366;SDS011;57745;42.524;12.052;2023-05-07T08:57:56;2.10;;;1.38;;
58366;SDS011;57745;42.524;12.052;2023-05-07T09:00:23;2.35;;;1.50;;
58366;SDS011;57745;42.524;12.052;2023-05-07T09:02:48;1.75;;;1.20;;
58366;SDS011;57745;42.524;12.052;2023-05-07T09:05:14;3.88;;;1.40;;
58366;SDS011;57745;42.524;12.052;2023-05-07T09:07:39;2.72;;;1.65;;
58366;SDS011;57745;42.524;12.052;2023-05-07T09:10:05;3.72;;;1.80;;
58366;SDS011;57745;42.524;12.052;2023-05-07T09:12:31;2.63;;;1.60;;
58366;SDS011;57745;42.524;12.052;2023-05-07T09:14:58;3.42;;;1.83;;
58366;SDS011;57745;42.524;12.052;2023-05-07T09:17:24;2.50;;;1.40;;
58366;SDS011;57745;42.524;12.052;2023-05-07T09:19:50;1.65;;;1.27;;
58366;SDS011;57745;42.524;12.052;2023-05-07T09:22:15;13.35;;;9.55;;
58366;SDS011;57745;42.524;12.052;2023-05-07T09:24:41;9.65;;;8.43;;
58366;SDS011;57745;42.524;12.052;2023-05-07T09:27:12;12.48;;;11.27;;
58366;SDS011;57745;42.524;12.052;2023-05-07T09:29:38;48.58;;;43.28;;
58366;SDS011;57745;42.524;12.052;2023-05-07T09:32:05;45.88;;;36.90;;
58366;SDS011;57745;42.524;12.052;2023-05-07T09:34:31;36.30;;;27.33;;
58366;SDS011;57745;42.524;12.052;2023-05-07T09:37:00;30.50;;;27.25;;
58366;SDS011;57745;42.524;12.052;2023-05-07T09:39:46;22.42;;;18.52;;
58366;SDS011;57745;42.524;12.052;2023-05-07T09:42:12;18.77;;;16.67;;
58366;SDS011;57745;42.524;12.052;2023-05-07T09:44:40;16.77;;;15.02;;
58366;SDS011;57745;42.524;12.052;2023-05-07T09:47:06;17.67;;;15.85;;
58366;SDS011;57745;42.524;12.052;2023-05-07T09:49:36;11.77;;;10.80;;
58366;SDS011;57745;42.524;12.052;2023-05-07T09:52:04;11.65;;;9.00;;
58366;SDS011;57745;42.524;12.052;2023-05-07T09:54:32;8.63;;;7.63;;
58366;SDS011;57745;42.524;12.052;2023-05-07T09:56:59;11.38;;;10.18;;
58366;SDS011;57745;42.524;12.052;2023-05-07T09:59:31;9.38;;;7.90;;
58366;SDS011;57745;42.524;12.052;2023-05-07T10:01:57;17.45;;;11.98;;
58366;SDS011;57745;42.524;12.052;2023-05-07T10:04:27;9.27;;;7.57;;
58366;SDS011;57745;42.524;12.052;2023-05-07T10:06:53;17.00;;;13.45;;
58366;SDS011;57745;42.524;12.052;2023-05-07T10:09:20;10.30;;;8.15;;
58366;SDS011;57745;42.524;12.052;2023-05-07T10:11:47;15.65;;;9.73;;
58366;SDS011;57745;42.524;12.052;2023-05-07T10:14:14;12.73;;;9.45;;
58366;SDS011;57745;42.524;12.052;2023-05-07T10:16:40;13.73;;;9.30;;
58366;SDS011;57745;42.524;12.052;2023-05-07T10:19:18;17.77;;;12.85;;
58366;SDS011;57745;42.524;12.052;2023-05-07T10:24:19;11.95;;;8.30;;
58366;SDS011;57745;42.524;12.052;2023-05-07T10:26:56;14.88;;;9.98;;
58366;SDS011;57745;42.524;12.052;2023-05-07T10:34:40;20.33;;;11.80;;
58366;SDS011;57745;42.524;12.052;2023-05-07T10:37:10;19.92;;;12.00;;
58366;SDS011;57745;42.524;12.052;2023-05-07T10:39:37;22.23;;;12.80;;
58366;SDS011;57745;42.524;12.052;2023-05-07T10:42:09;13.27;;;7.63;;
58366;SDS011;57745;42.524;12.052;2023-05-07T10:44:37;13.52;;;8.15;;
58366;SDS011;57745;42.524;12.052;2023-05-07T10:47:09;9.68;;;5.93;;
58366;SDS011;57745;42.524;12.052;2023-05-07T10:50:21;7.18;;;4.53;;
58366;SDS011;57745;42.524;12.052;2023-05-07T10:52:30;6.80;;;3.95;;
58366;SDS011;57745;42.524;12.052;2023-05-07T10:55:29;6.28;;;3.22;;
58366;SDS011;57745;42.524;12.052;2023-05-07T10:57:50;4.82;;;3.08;;
58366;SDS011;57745;42.524;12.052;2023-05-07T11:05:27;2.03;;;1.70;;
58366;SDS011;57745;42.524;12.052;2023-05-07T11:08:00;3.40;;;1.75;;
58366;SDS011;57745;42.524;12.052;2023-05-07T11:13:13;2.72;;;1.80;;
58366;SDS011;57745;42.524;12.052;2023-05-07T11:15:43;2.75;;;1.55;;
58366;SDS011;57745;42.524;12.052;2023-05-07T11:18:11;3.13;;;1.92;;
58366;SDS011;57745;42.524;12.052;2023-05-07T11:20:44;6.05;;;2.05;;
58366;SDS011;57745;42.524;12.052;2023-05-07T11:26:03;2.47;;;1.33;;
58366;SDS011;57745;42.524;12.052;2023-05-07T11:28:30;2.08;;;1.45;;
58366;SDS011;57745;42.524;12.052;2023-05-07T11:31:01;2.10;;;1.40;;
58366;SDS011;57745;42.524;12.052;2023-05-07T11:33:27;3.63;;;1.40;;
58366;SDS011;57745;42.524;12.052;2023-05-07T11:35:54;4.90;;;1.80;;
58366;SDS011;57745;42.524;12.052;2023-05-07T11:38:19;2.25;;;1.30;;
58366;SDS011;57745;42.524;12.052;2023-05-07T11:40:53;3.67;;;1.55;;
58366;SDS011;57745;42.524;12.052;2023-05-07T11:43:20;2.58;;;1.60;;
58366;SDS011;57745;42.524;12.052;2023-05-07T11:45:46;2.53;;;1.58;;
58366;SDS011;57745;42.524;12.052;2023-05-07T11:48:12;2.50;;;1.23;;
58366;SDS011;57745;42.524;12.052;2023-05-07T11:51:00;8.60;;;3.25;;
58366;SDS011;57745;42.524;12.052;2023-05-07T11:53:27;1.75;;;1.30;;
58366;SDS011;57745;42.524;12.052;2023-05-07T11:55:59;2.42;;;1.63;;
58366;SDS011;57745;42.524;12.052;2023-05-07T11:58:25;1.63;;;1.35;;
58366;SDS011;57745;42.524;12.052;2023-05-07T12:00:51;1.77;;;1.38;;
58366;SDS011;57745;42.524;12.052;2023-05-07T12:03:18;1.83;;;1.40;;
58366;SDS011;57745;42.524;12.052;2023-05-07T12:05:45;1.88;;;1.40;;
58366;SDS011;57745;42.524;12.052;2023-05-07T12:08:14;2.95;;;1.45;;
58366;SDS011;57745;42.524;12.052;2023-05-07T12:10:43;2.00;;;1.50;;
58366;SDS011;57745;42.524;12.052;2023-05-07T12:15:42;1.67;;;1.30;;
58366;SDS011;57745;42.524;12.052;2023-05-07T12:18:08;1.90;;;1.40;;
58366;SDS011;57745;42.524;12.052;2023-05-07T12:20:36;2.22;;;1.42;;
58366;SDS011;57745;42.524;12.052;2023-05-07T12:23:02;3.47;;;1.30;;
58366;SDS011;57745;42.524;12.052;2023-05-07T12:25:31;5.03;;;3.75;;
58366;SDS011;57745;42.524;12.052;2023-05-07T12:28:03;9.93;;;3.75;;
58366;SDS011;57745;42.524;12.052;2023-05-07T12:30:36;3.35;;;2.70;;
58366;SDS011;57745;42.524;12.052;2023-05-07T12:33:02;3.88;;;2.45;;
58366;SDS011;57745;42.524;12.052;2023-05-07T12:35:28;2.88;;;2.00;;
58366;SDS011;57745;42.524;12.052;2023-05-07T12:37:58;2.40;;;1.70;;
58366;SDS011;57745;42.524;12.052;2023-05-07T12:40:35;3.13;;;2.70;;
58366;SDS011;57745;42.524;12.052;2023-05-07T12:43:02;2.42;;;1.85;;
58366;SDS011;57745;42.524;12.052;2023-05-07T12:45:29;2.95;;;1.92;;
58366;SDS011;57745;42.524;12.052;2023-05-07T12:47:54;3.83;;;1.52;;
58366;SDS011;57745;42.524;12.052;2023-05-07T12:50:20;2.60;;;1.50;;
58366;SDS011;57745;42.524;12.052;2023-05-07T12:52:48;4.10;;;1.50;;
58366;SDS011;57745;42.524;12.052;2023-05-07T12:55:14;2.47;;;2.05;;
58366;SDS011;57745;42.524;12.052;2023-05-07T12:57:47;2.20;;;1.48;;
58366;SDS011;57745;42.524;12.052;2023-05-07T13:00:15;2.20;;;1.50;;
58366;SDS011;57745;42.524;12.052;2023-05-07T13:02:41;3.40;;;1.40;;
58366;SDS011;57745;42.524;12.052;2023-05-07T13:05:10;2.50;;;1.50;;
58366;SDS011;57745;42.524;12.052;2023-05-07T13:07:36;1.60;;;1.40;;
58366;SDS011;57745;42.524;12.052;2023-05-07T13:10:02;1.95;;;1.30;;
58366;SDS011;57745;42.524;12.052;2023-05-07T13:12:28;1.98;;;1.52;;
58366;SDS011;57745;42.524;12.052;2023-05-07T13:14:54;2.08;;;1.35;;
58366;SDS011;57745;42.524;12.052;2023-05-07T13:17:20;3.10;;;1.63;;
58366;SDS011;57745;42.524;12.052;2023-05-07T13:19:47;1.80;;;1.40;;
58366;SDS011;57745;42.524;12.052;2023-05-07T13:22:12;1.70;;;1.55;;
58366;SDS011;57745;42.524;12.052;2023-05-07T13:24:38;2.03;;;1.30;;
58366;SDS011;57745;42.524;12.052;2023-05-07T13:27:07;2.10;;;1.20;;
58366;SDS011;57745;42.524;12.052;2023-05-07T13:29:33;1.80;;;1.27;;
58366;SDS011;57745;42.524;12.052;2023-05-07T13:31:58;2.53;;;1.50;;
58366;SDS011;57745;42.524;12.052;2023-05-07T13:34:24;2.85;;;1.20;;
58366;SDS011;57745;42.524;12.052;2023-05-07T13:36:50;2.05;;;1.38;;
58366;SDS011;57745;42.524;12.052;2023-05-07T13:39:16;3.50;;;1.50;;
58366;SDS011;57745;42.524;12.052;2023-05-07T13:41:42;2.10;;;1.27;;
58366;SDS011;57745;42.524;12.052;2023-05-07T13:44:08;2.33;;;1.15;;
58366;SDS011;57745;42.524;12.052;2023-05-07T13:46:33;3.75;;;1.50;;
58366;SDS011;57745;42.524;12.052;2023-05-07T13:48:59;2.40;;;1.25;;
58366;SDS011;57745;42.524;12.052;2023-05-07T13:51:24;2.08;;;1.20;;
58366;SDS011;57745;42.524;12.052;2023-05-07T13:53:50;2.13;;;1.20;;
58366;SDS011;57745;42.524;12.052;2023-05-07T13:56:18;2.55;;;1.20;;
58366;SDS011;57745;42.524;12.052;2023-05-07T13:58:45;5.03;;;1.77;;
58366;SDS011;57745;42.524;12.052;2023-05-07T14:01:10;1.73;;;1.27;;
58366;SDS011;57745;42.524;12.052;2023-05-07T14:03:36;1.60;;;1.30;;
58366;SDS011;57745;42.524;12.052;2023-05-07T14:06:03;2.25;;;1.60;;
58366;SDS011;57745;42.524;12.052;2023-05-07T14:08:28;1.75;;;1.23;;
58366;SDS011;57745;42.524;12.052;2023-05-07T14:10:54;2.17;;;1.33;;
58366;SDS011;57745;42.524;12.052;2023-05-07T14:13:19;2.85;;;1.27;;
58366;SDS011;57745;42.524;12.052;2023-05-07T14:15:45;1.65;;;1.10;;
58366;SDS011;57745;42.524;12.052;2023-05-07T14:18:14;5.15;;;1.20;;
58366;SDS011;57745;42.524;12.052;2023-05-07T14:20:41;1.60;;;1.30;;
58366;SDS011;57745;42.524;12.052;2023-05-07T14:23:08;2.72;;;1.35;;
58366;SDS011;57745;42.524;12.052;2023-05-07T14:25:33;2.65;;;1.50;;
58366;SDS011;57745;42.524;12.052;2023-05-07T14:27:59;1.42;;;1.30;;
58366;SDS011;57745;42.524;12.052;2023-05-07T14:30:24;2.55;;;1.27;;
58366;SDS011;57745;42.524;12.052;2023-05-07T14:32:50;1.67;;;1.10;;
58366;SDS011;57745;42.524;12.052;2023-05-07T14:35:16;1.40;;;1.10;;
58366;SDS011;57745;42.524;12.052;2023-05-07T14:37:41;1.83;;;1.30;;
58366;SDS011;57745;42.524;12.052;2023-05-07T14:40:09;1.58;;;1.25;;
58366;SDS011;57745;42.524;12.052;2023-05-07T14:42:34;4.20;;;1.40;;
58366;SDS011;57745;42.524;12.052;2023-05-07T14:45:00;2.60;;;1.20;;
58366;SDS011;57745;42.524;12.052;2023-05-07T14:47:25;3.80;;;1.58;;
58366;SDS011;57745;42.524;12.052;2023-05-07T14:49:51;2.42;;;1.20;;